In Rescue
 
Open Full Screen Window  High Contrast Mode
Wind Gusting 00 knots
09
February 02, 2023 8:52 PM EST
Weather Information
Wind Direction
  270 °
Wind Speed
  09 kt (10 mph)
Wind Gust
  00 kt (0 mph)
Altimeter
29.94 in
Visibility
10 SM
Temperature
00° C
32° F
Dewpoint
-09° C
16° F
Humidity
51%
1hr Rain Fall
00.00 in.
24hr Rain Fall
00.00 in.
Sky Condition
Overcast @ 4,700 ft
Broken @ 3,800 ft
VFR

METAR KPOV 030152Z AUTO 27009KT 10SM BKN038 OVC047 00/M09 A2994 RMK AO2 T00001092 PWINO

FAA Disclaimer: The data displayed is for advisory purposes only and is not to be used for flight planning or operations.